Fergusonville, New York
Current Conditions -  °F | °C
As of 5:55 AM on Thursday 23 Oct 2014 (Local Time) from KNY0 Reporting Station
Overcast Overcast  
Wind Chill: 45°   Ceiling: 2300
Heat Index: 45°   Visibility: 10mi
Dew Point: 44°   Wind: 0mph
Humidity: 96%   Direction: NA
Pressure: 29.89"   Gusts: NA
Location:  42.6052°N, 74.8141°W
Report Text: KNY0 230955Z AUTO 00000KT 10SM OVC023 07/07 A2989 RMK AO2 P0002 T00730067
Loading
Personal Weather Stations






























Interactive Weather Map
Tropical Storm Tracking
New forecast layout! Learn more

10-Day Weather Forecast

Advertisements
Track Severe Weather on mobile